sensor_id;sensor_type;location;lat;lon;timestamp;P1;durP1;ratioP1;P2;durP2;ratioP2
64609;SDS011;51019;46.090;6.350;2024-01-27T00:00:32;36.80;;;16.20;;
64609;SDS011;51019;46.090;6.350;2024-01-27T00:02:59;46.45;;;11.65;;
64609;SDS011;51019;46.090;6.350;2024-01-27T00:05:28;73.95;;;23.30;;
64609;SDS011;51019;46.090;6.350;2024-01-27T00:07:55;43.75;;;17.55;;
64609;SDS011;51019;46.090;6.350;2024-01-27T00:10:24;38.33;;;11.50;;
64609;SDS011;51019;46.090;6.350;2024-01-27T00:12:51;57.20;;;21.80;;
64609;SDS011;51019;46.090;6.350;2024-01-27T00:15:18;60.40;;;23.20;;
64609;SDS011;51019;46.090;6.350;2024-01-27T00:17:45;54.20;;;21.50;;
64609;SDS011;51019;46.090;6.350;2024-01-27T00:20:12;42.35;;;11.55;;
64609;SDS011;51019;46.090;6.350;2024-01-27T00:22:39;36.97;;;17.95;;
64609;SDS011;51019;46.090;6.350;2024-01-27T00:25:06;41.28;;;11.57;;
64609;SDS011;51019;46.090;6.350;2024-01-27T00:27:35;38.33;;;12.20;;
64609;SDS011;51019;46.090;6.350;2024-01-27T00:30:02;31.27;;;15.93;;
64609;SDS011;51019;46.090;6.350;2024-01-27T00:32:30;34.97;;;16.02;;
64609;SDS011;51019;46.090;6.350;2024-01-27T00:34:59;34.47;;;15.73;;
64609;SDS011;51019;46.090;6.350;2024-01-27T00:37:26;33.38;;;8.30;;
64609;SDS011;51019;46.090;6.350;2024-01-27T00:39:53;40.00;;;17.60;;
64609;SDS011;51019;46.090;6.350;2024-01-27T00:42:20;28.40;;;9.20;;
64609;SDS011;51019;46.090;6.350;2024-01-27T00:44:51;25.63;;;10.15;;
64609;SDS011;51019;46.090;6.350;2024-01-27T00:47:18;34.72;;;16.88;;
64609;SDS011;51019;46.090;6.350;2024-01-27T00:49:46;24.95;;;8.45;;
64609;SDS011;51019;46.090;6.350;2024-01-27T00:52:13;34.13;;;16.40;;
64609;SDS011;51019;46.090;6.350;2024-01-27T00:54:40;26.17;;;10.48;;
64609;SDS011;51019;46.090;6.350;2024-01-27T00:57:07;32.20;;;16.08;;
64609;SDS011;51019;46.090;6.350;2024-01-27T00:59:34;29.13;;;10.85;;
64609;SDS011;51019;46.090;6.350;2024-01-27T01:02:03;30.20;;;15.07;;
64609;SDS011;51019;46.090;6.350;2024-01-27T01:04:30;25.15;;;8.93;;
64609;SDS011;51019;46.090;6.350;2024-01-27T01:06:58;21.17;;;9.00;;
64609;SDS011;51019;46.090;6.350;2024-01-27T01:09:25;37.08;;;15.38;;
64609;SDS011;51019;46.090;6.350;2024-01-27T01:11:52;27.13;;;10.02;;
64609;SDS011;51019;46.090;6.350;2024-01-27T01:14:19;37.25;;;16.58;;
64609;SDS011;51019;46.090;6.350;2024-01-27T01:16:47;30.13;;;9.70;;
64609;SDS011;51019;46.090;6.350;2024-01-27T01:19:15;28.08;;;11.27;;
64609;SDS011;51019;46.090;6.350;2024-01-27T01:21:43;37.13;;;16.40;;
64609;SDS011;51019;46.090;6.350;2024-01-27T01:24:10;35.33;;;11.25;;
64609;SDS011;51019;46.090;6.350;2024-01-27T01:26:37;35.30;;;15.50;;
64609;SDS011;51019;46.090;6.350;2024-01-27T01:29:04;40.17;;;15.95;;
64609;SDS011;51019;46.090;6.350;2024-01-27T01:31:32;24.35;;;7.57;;
64609;SDS011;51019;46.090;6.350;2024-01-27T01:33:59;26.15;;;9.82;;
64609;SDS011;51019;46.090;6.350;2024-01-27T01:36:28;43.22;;;16.58;;
64609;SDS011;51019;46.090;6.350;2024-01-27T01:38:55;35.47;;;17.70;;
64609;SDS011;51019;46.090;6.350;2024-01-27T01:41:22;29.25;;;9.90;;
64609;SDS011;51019;46.090;6.350;2024-01-27T01:43:49;30.33;;;10.07;;
64609;SDS011;51019;46.090;6.350;2024-01-27T01:46:16;42.85;;;17.48;;
64609;SDS011;51019;46.090;6.350;2024-01-27T01:48:44;33.30;;;16.77;;
64609;SDS011;51019;46.090;6.350;2024-01-27T01:51:11;36.45;;;17.48;;
64609;SDS011;51019;46.090;6.350;2024-01-27T01:53:40;36.90;;;10.55;;
64609;SDS011;51019;46.090;6.350;2024-01-27T01:56:07;32.42;;;15.63;;
64609;SDS011;51019;46.090;6.350;2024-01-27T01:58:35;39.50;;;17.00;;
64609;SDS011;51019;46.090;6.350;2024-01-27T02:01:03;50.55;;;19.63;;
64609;SDS011;51019;46.090;6.350;2024-01-27T02:03:30;26.83;;;9.73;;
64609;SDS011;51019;46.090;6.350;2024-01-27T02:05:57;47.47;;;19.17;;
64609;SDS011;51019;46.090;6.350;2024-01-27T02:08:24;33.08;;;10.25;;
64609;SDS011;51019;46.090;6.350;2024-01-27T02:10:53;44.53;;;18.73;;
64609;SDS011;51019;46.090;6.350;2024-01-27T02:13:23;32.25;;;9.55;;
64609;SDS011;51019;46.090;6.350;2024-01-27T02:15:52;37.47;;;9.95;;
64609;SDS011;51019;46.090;6.350;2024-01-27T02:18:19;44.03;;;16.95;;
64609;SDS011;51019;46.090;6.350;2024-01-27T02:20:46;23.55;;;8.48;;
64609;SDS011;51019;46.090;6.350;2024-01-27T02:23:13;28.42;;;10.75;;
64609;SDS011;51019;46.090;6.350;2024-01-27T02:25:41;50.45;;;18.40;;
64609;SDS011;51019;46.090;6.350;2024-01-27T02:28:08;48.30;;;11.00;;
64609;SDS011;51019;46.090;6.350;2024-01-27T02:30:35;39.95;;;17.88;;
64609;SDS011;51019;46.090;6.350;2024-01-27T02:33:02;28.05;;;9.85;;
64609;SDS011;51019;46.090;6.350;2024-01-27T02:35:30;23.48;;;8.45;;
64609;SDS011;51019;46.090;6.350;2024-01-27T02:37:57;38.15;;;8.13;;
64609;SDS011;51019;46.090;6.350;2024-01-27T02:40:24;22.35;;;9.38;;
64609;SDS011;51019;46.090;6.350;2024-01-27T02:42:53;37.83;;;18.10;;
64609;SDS011;51019;46.090;6.350;2024-01-27T02:45:20;25.33;;;8.73;;
64609;SDS011;51019;46.090;6.350;2024-01-27T02:47:47;25.58;;;8.27;;
64609;SDS011;51019;46.090;6.350;2024-01-27T02:50:14;21.48;;;8.98;;
64609;SDS011;51019;46.090;6.350;2024-01-27T02:52:41;23.27;;;8.15;;
64609;SDS011;51019;46.090;6.350;2024-01-27T02:55:08;32.22;;;16.83;;
64609;SDS011;51019;46.090;6.350;2024-01-27T02:57:35;24.73;;;8.15;;
64609;SDS011;51019;46.090;6.350;2024-01-27T03:00:05;58.75;;;21.10;;
64609;SDS011;51019;46.090;6.350;2024-01-27T03:02:33;26.13;;;9.30;;
64609;SDS011;51019;46.090;6.350;2024-01-27T03:05:00;38.75;;;20.73;;
64609;SDS011;51019;46.090;6.350;2024-01-27T03:07:27;56.10;;;24.77;;
64609;SDS011;51019;46.090;6.350;2024-01-27T03:09:54;97.18;;;25.58;;
64609;SDS011;51019;46.090;6.350;2024-01-27T03:12:21;30.92;;;11.25;;
64609;SDS011;51019;46.090;6.350;2024-01-27T03:14:49;23.48;;;8.23;;
64609;SDS011;51019;46.090;6.350;2024-01-27T03:17:18;24.73;;;8.30;;
64609;SDS011;51019;46.090;6.350;2024-01-27T03:19:45;23.48;;;9.32;;
64609;SDS011;51019;46.090;6.350;2024-01-27T03:22:12;20.60;;;8.25;;
64609;SDS011;51019;46.090;6.350;2024-01-27T03:24:40;23.98;;;8.18;;
64609;SDS011;51019;46.090;6.350;2024-01-27T03:27:07;24.27;;;8.95;;
64609;SDS011;51019;46.090;6.350;2024-01-27T03:29:33;24.73;;;8.80;;
64609;SDS011;51019;46.090;6.350;2024-01-27T03:32:01;20.92;;;7.18;;
64609;SDS011;51019;46.090;6.350;2024-01-27T03:34:30;28.48;;;7.95;;
64609;SDS011;51019;46.090;6.350;2024-01-27T03:36:57;20.38;;;7.47;;
64609;SDS011;51019;46.090;6.350;2024-01-27T03:39:24;27.20;;;8.50;;
64609;SDS011;51019;46.090;6.350;2024-01-27T03:41:51;28.42;;;9.15;;
64609;SDS011;51019;46.090;6.350;2024-01-27T03:44:18;40.85;;;16.60;;
64609;SDS011;51019;46.090;6.350;2024-01-27T03:46:45;18.50;;;6.35;;
64609;SDS011;51019;46.090;6.350;2024-01-27T03:49:13;34.88;;;14.85;;
64609;SDS011;51019;46.090;6.350;2024-01-27T03:51:42;25.25;;;7.03;;
64609;SDS011;51019;46.090;6.350;2024-01-27T03:54:09;21.42;;;6.88;;
64609;SDS011;51019;46.090;6.350;2024-01-27T03:56:36;31.13;;;14.25;;
64609;SDS011;51019;46.090;6.350;2024-01-27T03:59:04;22.00;;;7.82;;
64609;SDS011;51019;46.090;6.350;2024-01-27T04:01:34;23.55;;;11.05;;
64609;SDS011;51019;46.090;6.350;2024-01-27T04:04:01;25.05;;;11.90;;
64609;SDS011;51019;46.090;6.350;2024-01-27T04:06:28;18.75;;;5.40;;
64609;SDS011;51019;46.090;6.350;2024-01-27T04:09:04;29.60;;;12.75;;
64609;SDS011;51019;46.090;6.350;2024-01-27T04:11:33;20.38;;;5.97;;
64609;SDS011;51019;46.090;6.350;2024-01-27T04:14:01;32.58;;;12.77;;
64609;SDS011;51019;46.090;6.350;2024-01-27T04:16:28;18.58;;;6.68;;
64609;SDS011;51019;46.090;6.350;2024-01-27T04:18:55;40.28;;;14.25;;
64609;SDS011;51019;46.090;6.350;2024-01-27T04:21:23;15.38;;;5.05;;
64609;SDS011;51019;46.090;6.350;2024-01-27T04:23:50;26.40;;;6.85;;
64609;SDS011;51019;46.090;6.350;2024-01-27T04:26:19;33.20;;;12.80;;
64609;SDS011;51019;46.090;6.350;2024-01-27T04:28:46;29.02;;;13.05;;
64609;SDS011;51019;46.090;6.350;2024-01-27T04:31:13;25.17;;;12.32;;
64609;SDS011;51019;46.090;6.350;2024-01-27T04:33:40;19.27;;;6.07;;
64609;SDS011;51019;46.090;6.350;2024-01-27T04:36:07;29.02;;;12.75;;
64609;SDS011;51019;46.090;6.350;2024-01-27T04:38:35;25.88;;;7.30;;
64609;SDS011;51019;46.090;6.350;2024-01-27T04:41:02;23.58;;;7.65;;
64609;SDS011;51019;46.090;6.350;2024-01-27T04:43:31;24.67;;;11.57;;
64609;SDS011;51019;46.090;6.350;2024-01-27T04:45:58;29.13;;;11.07;;
64609;SDS011;51019;46.090;6.350;2024-01-27T04:48:25;23.15;;;6.80;;
64609;SDS011;51019;46.090;6.350;2024-01-27T04:50:52;28.10;;;12.52;;
64609;SDS011;51019;46.090;6.350;2024-01-27T04:53:19;30.27;;;12.40;;
64609;SDS011;51019;46.090;6.350;2024-01-27T04:55:46;18.90;;;7.15;;
64609;SDS011;51019;46.090;6.350;2024-01-27T04:58:14;21.17;;;7.80;;
64609;SDS011;51019;46.090;6.350;2024-01-27T05:00:43;21.55;;;10.52;;
64609;SDS011;51019;46.090;6.350;2024-01-27T05:03:10;17.58;;;6.88;;
64609;SDS011;51019;46.090;6.350;2024-01-27T05:05:40;19.13;;;7.50;;
64609;SDS011;51019;46.090;6.350;2024-01-27T05:08:07;20.88;;;11.13;;
64609;SDS011;51019;46.090;6.350;2024-01-27T05:10:34;22.63;;;11.63;;
64609;SDS011;51019;46.090;6.350;2024-01-27T05:13:02;20.92;;;7.47;;
64609;SDS011;51019;46.090;6.350;2024-01-27T05:15:29;23.63;;;11.93;;
64609;SDS011;51019;46.090;6.350;2024-01-27T05:17:58;17.42;;;6.90;;
64609;SDS011;51019;46.090;6.350;2024-01-27T05:20:25;21.80;;;11.73;;
64609;SDS011;51019;46.090;6.350;2024-01-27T05:22:52;22.30;;;11.07;;
64609;SDS011;51019;46.090;6.350;2024-01-27T05:25:20;16.75;;;6.03;;
64609;SDS011;51019;46.090;6.350;2024-01-27T05:27:47;19.98;;;8.10;;
64609;SDS011;51019;46.090;6.350;2024-01-27T05:30:16;22.40;;;7.00;;
64609;SDS011;51019;46.090;6.350;2024-01-27T05:32:43;22.52;;;11.57;;
64609;SDS011;51019;46.090;6.350;2024-01-27T05:35:12;17.08;;;6.80;;
64609;SDS011;51019;46.090;6.350;2024-01-27T05:37:39;15.88;;;6.38;;
64609;SDS011;51019;46.090;6.350;2024-01-27T05:40:07;23.73;;;11.48;;
64609;SDS011;51019;46.090;6.350;2024-01-27T05:42:35;21.52;;;11.13;;
64609;SDS011;51019;46.090;6.350;2024-01-27T05:45:03;17.13;;;6.22;;
64609;SDS011;51019;46.090;6.350;2024-01-27T05:47:31;16.77;;;6.90;;
64609;SDS011;51019;46.090;6.350;2024-01-27T05:49:58;22.67;;;11.45;;
64609;SDS011;51019;46.090;6.350;2024-01-27T05:52:27;17.45;;;5.97;;
64609;SDS011;51019;46.090;6.350;2024-01-27T05:54:54;18.65;;;6.28;;
64609;SDS011;51019;46.090;6.350;2024-01-27T05:57:20;22.25;;;7.43;;
64609;SDS011;51019;46.090;6.350;2024-01-27T05:59:47;19.67;;;7.03;;
64609;SDS011;51019;46.090;6.350;2024-01-27T06:02:14;19.48;;;7.40;;
64609;SDS011;51019;46.090;6.350;2024-01-27T06:04:43;18.55;;;7.55;;
64609;SDS011;51019;46.090;6.350;2024-01-27T06:07:10;20.67;;;6.82;;
64609;SDS011;51019;46.090;6.350;2024-01-27T06:09:39;24.25;;;13.20;;
64609;SDS011;51019;46.090;6.350;2024-01-27T06:12:06;18.65;;;6.65;;
64609;SDS011;51019;46.090;6.350;2024-01-27T06:14:33;18.77;;;6.53;;
64609;SDS011;51019;46.090;6.350;2024-01-27T06:17:00;19.45;;;6.53;;
64609;SDS011;51019;46.090;6.350;2024-01-27T06:19:28;26.42;;;14.38;;
64609;SDS011;51019;46.090;6.350;2024-01-27T06:21:55;18.70;;;6.60;;
64609;SDS011;51019;46.090;6.350;2024-01-27T06:24:23;21.77;;;6.82;;
64609;SDS011;51019;46.090;6.350;2024-01-27T06:26:51;17.70;;;6.43;;
64609;SDS011;51019;46.090;6.350;2024-01-27T06:29:18;21.10;;;7.07;;
64609;SDS011;51019;46.090;6.350;2024-01-27T06:31:45;22.55;;;7.78;;
64609;SDS011;51019;46.090;6.350;2024-01-27T06:34:12;26.17;;;13.93;;
64609;SDS011;51019;46.090;6.350;2024-01-27T06:36:39;19.92;;;6.30;;
64609;SDS011;51019;46.090;6.350;2024-01-27T06:39:07;22.05;;;6.97;;
64609;SDS011;51019;46.090;6.350;2024-01-27T06:41:35;18.83;;;6.63;;
64609;SDS011;51019;46.090;6.350;2024-01-27T06:44:03;21.42;;;6.22;;
64609;SDS011;51019;46.090;6.350;2024-01-27T06:46:32;22.80;;;8.55;;
64609;SDS011;51019;46.090;6.350;2024-01-27T06:49:00;26.15;;;12.85;;
64609;SDS011;51019;46.090;6.350;2024-01-27T06:51:27;19.55;;;6.90;;
64609;SDS011;51019;46.090;6.350;2024-01-27T06:53:54;24.98;;;12.38;;
64609;SDS011;51019;46.090;6.350;2024-01-27T06:56:21;18.38;;;7.45;;
64609;SDS011;51019;46.090;6.350;2024-01-27T06:58:49;18.92;;;6.63;;
64609;SDS011;51019;46.090;6.350;2024-01-27T07:01:18;20.73;;;6.90;;
64609;SDS011;51019;46.090;6.350;2024-01-27T07:03:45;20.08;;;7.53;;
64609;SDS011;51019;46.090;6.350;2024-01-27T07:06:12;18.75;;;7.50;;
64609;SDS011;51019;46.090;6.350;2024-01-27T07:08:39;27.33;;;13.82;;
64609;SDS011;51019;46.090;6.350;2024-01-27T07:11:06;22.42;;;7.00;;
64609;SDS011;51019;46.090;6.350;2024-01-27T07:13:33;20.25;;;8.15;;
64609;SDS011;51019;46.090;6.350;2024-01-27T07:16:01;17.85;;;7.90;;
64609;SDS011;51019;46.090;6.350;2024-01-27T07:18:30;26.17;;;13.70;;
64609;SDS011;51019;46.090;6.350;2024-01-27T07:21:00;19.95;;;6.88;;
64609;SDS011;51019;46.090;6.350;2024-01-27T07:23:27;20.30;;;7.03;;
64609;SDS011;51019;46.090;6.350;2024-01-27T07:25:54;20.52;;;7.15;;
64609;SDS011;51019;46.090;6.350;2024-01-27T07:28:22;20.92;;;7.63;;
64609;SDS011;51019;46.090;6.350;2024-01-27T07:30:50;20.52;;;8.38;;
64609;SDS011;51019;46.090;6.350;2024-01-27T07:33:18;24.58;;;13.10;;
64609;SDS011;51019;46.090;6.350;2024-01-27T07:35:47;21.90;;;7.65;;
64609;SDS011;51019;46.090;6.350;2024-01-27T07:38:14;23.13;;;12.50;;
64609;SDS011;51019;46.090;6.350;2024-01-27T07:40:41;18.70;;;7.35;;
64609;SDS011;51019;46.090;6.350;2024-01-27T07:43:08;19.83;;;7.30;;
64609;SDS011;51019;46.090;6.350;2024-01-27T07:45:35;18.55;;;6.95;;
64609;SDS011;51019;46.090;6.350;2024-01-27T07:48:02;18.85;;;9.57;;
64609;SDS011;51019;46.090;6.350;2024-01-27T07:50:30;16.85;;;6.28;;
64609;SDS011;51019;46.090;6.350;2024-01-27T07:52:59;18.10;;;6.03;;
64609;SDS011;51019;46.090;6.350;2024-01-27T07:55:26;18.17;;;8.68;;
64609;SDS011;51019;46.090;6.350;2024-01-27T07:57:54;17.48;;;9.25;;
64609;SDS011;51019;46.090;6.350;2024-01-27T08:00:21;15.68;;;5.07;;
64609;SDS011;51019;46.090;6.350;2024-01-27T08:02:48;20.00;;;10.50;;
64609;SDS011;51019;46.090;6.350;2024-01-27T08:05:15;20.10;;;9.45;;
64609;SDS011;51019;46.090;6.350;2024-01-27T08:07:42;19.17;;;8.60;;
64609;SDS011;51019;46.090;6.350;2024-01-27T08:10:11;15.85;;;6.57;;
64609;SDS011;51019;46.090;6.350;2024-01-27T08:12:38;19.50;;;10.38;;
64609;SDS011;51019;46.090;6.350;2024-01-27T08:15:06;19.95;;;10.57;;
64609;SDS011;51019;46.090;6.350;2024-01-27T08:17:34;22.13;;;10.93;;
64609;SDS011;51019;46.090;6.350;2024-01-27T08:20:01;22.50;;;12.32;;
64609;SDS011;51019;46.090;6.350;2024-01-27T08:22:29;19.27;;;7.88;;
64609;SDS011;51019;46.090;6.350;2024-01-27T08:24:56;20.95;;;12.18;;
64609;SDS011;51019;46.090;6.350;2024-01-27T08:27:25;22.42;;;12.38;;
64609;SDS011;51019;46.090;6.350;2024-01-27T08:29:52;19.08;;;7.82;;
64609;SDS011;51019;46.090;6.350;2024-01-27T08:32:19;23.20;;;9.15;;
64609;SDS011;51019;46.090;6.350;2024-01-27T08:34:46;25.42;;;14.00;;
64609;SDS011;51019;46.090;6.350;2024-01-27T08:37:14;22.52;;;9.63;;
64609;SDS011;51019;46.090;6.350;2024-01-27T08:39:42;26.83;;;14.40;;
64609;SDS011;51019;46.090;6.350;2024-01-27T08:42:09;26.10;;;15.70;;
64609;SDS011;51019;46.090;6.350;2024-01-27T08:44:42;24.88;;;15.13;;
64609;SDS011;51019;46.090;6.350;2024-01-27T08:47:09;24.48;;;10.50;;
64609;SDS011;51019;46.090;6.350;2024-01-27T08:49:36;27.02;;;16.15;;
64609;SDS011;51019;46.090;6.350;2024-01-27T08:52:03;25.02;;;10.43;;
64609;SDS011;51019;46.090;6.350;2024-01-27T08:54:31;26.02;;;16.05;;
64609;SDS011;51019;46.090;6.350;2024-01-27T08:57:00;24.52;;;11.18;;
64609;SDS011;51019;46.090;6.350;2024-01-27T08:59:27;26.73;;;16.42;;
64609;SDS011;51019;46.090;6.350;2024-01-27T09:01:57;27.90;;;18.10;;
64609;SDS011;51019;46.090;6.350;2024-01-27T09:04:25;28.40;;;18.50;;
64609;SDS011;51019;46.090;6.350;2024-01-27T09:06:52;31.48;;;19.02;;
64609;SDS011;51019;46.090;6.350;2024-01-27T09:09:19;25.23;;;10.68;;
64609;SDS011;51019;46.090;6.350;2024-01-27T09:11:46;29.33;;;13.13;;
64609;SDS011;51019;46.090;6.350;2024-01-27T09:14:15;32.72;;;19.15;;
64609;SDS011;51019;46.090;6.350;2024-01-27T09:16:42;35.67;;;19.88;;
64609;SDS011;51019;46.090;6.350;2024-01-27T09:19:12;36.80;;;20.40;;
64609;SDS011;51019;46.090;6.350;2024-01-27T09:21:40;34.42;;;20.02;;
64609;SDS011;51019;46.090;6.350;2024-01-27T09:24:07;36.97;;;20.33;;
64609;SDS011;51019;46.090;6.350;2024-01-27T09:26:34;31.38;;;18.50;;
64609;SDS011;51019;46.090;6.350;2024-01-27T09:29:02;32.88;;;21.55;;
64609;SDS011;51019;46.090;6.350;2024-01-27T09:31:29;26.40;;;11.55;;
64609;SDS011;51019;46.090;6.350;2024-01-27T09:33:57;35.97;;;12.27;;
64609;SDS011;51019;46.090;6.350;2024-01-27T09:36:25;36.00;;;13.27;;
64609;SDS011;51019;46.090;6.350;2024-01-27T09:38:52;31.73;;;15.13;;
64609;SDS011;51019;46.090;6.350;2024-01-27T09:41:20;30.88;;;13.25;;
64609;SDS011;51019;46.090;6.350;2024-01-27T09:43:49;30.45;;;12.68;;
64609;SDS011;51019;46.090;6.350;2024-01-27T09:46:17;34.78;;;13.35;;
64609;SDS011;51019;46.090;6.350;2024-01-27T09:48:45;35.55;;;20.65;;
64609;SDS011;51019;46.090;6.350;2024-01-27T09:51:12;36.75;;;21.65;;
64609;SDS011;51019;46.090;6.350;2024-01-27T09:53:44;36.30;;;21.38;;
64609;SDS011;51019;46.090;6.350;2024-01-27T09:56:11;38.53;;;21.67;;
64609;SDS011;51019;46.090;6.350;2024-01-27T09:58:43;31.33;;;13.80;;
64609;SDS011;51019;46.090;6.350;2024-01-27T10:01:11;35.63;;;20.60;;
64609;SDS011;51019;46.090;6.350;2024-01-27T10:03:40;33.90;;;13.57;;
64609;SDS011;51019;46.090;6.350;2024-01-27T10:06:08;38.30;;;20.05;;
64609;SDS011;51019;46.090;6.350;2024-01-27T10:08:38;40.35;;;21.10;;
64609;SDS011;51019;46.090;6.350;2024-01-27T10:11:07;33.95;;;19.92;;
64609;SDS011;51019;46.090;6.350;2024-01-27T10:13:35;37.15;;;21.33;;
64609;SDS011;51019;46.090;6.350;2024-01-27T10:16:03;32.92;;;19.27;;
64609;SDS011;51019;46.090;6.350;2024-01-27T10:18:31;31.10;;;17.95;;
64609;SDS011;51019;46.090;6.350;2024-01-27T10:20:59;31.58;;;17.83;;
64609;SDS011;51019;46.090;6.350;2024-01-27T10:23:27;28.40;;;17.42;;
64609;SDS011;51019;46.090;6.350;2024-01-27T10:25:54;32.13;;;17.08;;
64609;SDS011;51019;46.090;6.350;2024-01-27T10:28:23;25.90;;;12.45;;
64609;SDS011;51019;46.090;6.350;2024-01-27T10:30:50;32.35;;;17.98;;
64609;SDS011;51019;46.090;6.350;2024-01-27T10:33:17;25.42;;;10.40;;
64609;SDS011;51019;46.090;6.350;2024-01-27T10:35:44;30.83;;;16.75;;
64609;SDS011;51019;46.090;6.350;2024-01-27T10:38:11;31.40;;;18.05;;
64609;SDS011;51019;46.090;6.350;2024-01-27T10:40:38;27.00;;;16.63;;
64609;SDS011;51019;46.090;6.350;2024-01-27T10:43:06;26.55;;;16.25;;
64609;SDS011;51019;46.090;6.350;2024-01-27T10:45:37;23.42;;;15.55;;
64609;SDS011;51019;46.090;6.350;2024-01-27T10:48:07;26.35;;;14.77;;
64609;SDS011;51019;46.090;6.350;2024-01-27T10:50:36;26.58;;;15.10;;
64609;SDS011;51019;46.090;6.350;2024-01-27T10:53:08;26.20;;;14.80;;
64609;SDS011;51019;46.090;6.350;2024-01-27T10:55:40;25.65;;;15.13;;
64609;SDS011;51019;46.090;6.350;2024-01-27T10:58:11;24.30;;;13.93;;
64609;SDS011;51019;46.090;6.350;2024-01-27T11:00:41;20.23;;;11.68;;
64609;SDS011;51019;46.090;6.350;2024-01-27T11:03:10;21.15;;;12.55;;
64609;SDS011;51019;46.090;6.350;2024-01-27T11:05:38;20.20;;;11.50;;
64609;SDS011;51019;46.090;6.350;2024-01-27T11:08:06;18.85;;;10.23;;
64609;SDS011;51019;46.090;6.350;2024-01-27T11:10:35;20.13;;;10.82;;
64609;SDS011;51019;46.090;6.350;2024-01-27T11:13:04;20.52;;;11.20;;
64609;SDS011;51019;46.090;6.350;2024-01-27T11:15:32;22.35;;;12.48;;
64609;SDS011;51019;46.090;6.350;2024-01-27T11:18:02;22.10;;;11.90;;
64609;SDS011;51019;46.090;6.350;2024-01-27T11:20:31;21.50;;;11.57;;
64609;SDS011;51019;46.090;6.350;2024-01-27T11:23:08;23.45;;;10.23;;
64609;SDS011;51019;46.090;6.350;2024-01-27T11:25:35;20.65;;;12.35;;
64609;SDS011;51019;46.090;6.350;2024-01-27T11:28:10;20.98;;;11.38;;
64609;SDS011;51019;46.090;6.350;2024-01-27T11:30:39;18.67;;;9.80;;
64609;SDS011;51019;46.090;6.350;2024-01-27T11:33:13;16.08;;;8.25;;
64609;SDS011;51019;46.090;6.350;2024-01-27T11:35:40;15.35;;;7.65;;
64609;SDS011;51019;46.090;6.350;2024-01-27T11:38:07;15.15;;;5.88;;
64609;SDS011;51019;46.090;6.350;2024-01-27T11:40:44;14.65;;;6.75;;
64609;SDS011;51019;46.090;6.350;2024-01-27T11:43:11;14.25;;;6.38;;
64609;SDS011;51019;46.090;6.350;2024-01-27T11:45:40;16.58;;;8.85;;
64609;SDS011;51019;46.090;6.350;2024-01-27T11:48:07;15.55;;;8.02;;
64609;SDS011;51019;46.090;6.350;2024-01-27T11:50:36;17.67;;;9.27;;
64609;SDS011;51019;46.090;6.350;2024-01-27T11:53:04;16.00;;;7.78;;
64609;SDS011;51019;46.090;6.350;2024-01-27T11:55:34;13.68;;;6.75;;
64609;SDS011;51019;46.090;6.350;2024-01-27T11:58:03;14.32;;;7.05;;
64609;SDS011;51019;46.090;6.350;2024-01-27T12:00:32;14.93;;;8.02;;
64609;SDS011;51019;46.090;6.350;2024-01-27T12:02:59;14.27;;;7.10;;
64609;SDS011;51019;46.090;6.350;2024-01-27T12:05:26;15.75;;;8.15;;
64609;SDS011;51019;46.090;6.350;2024-01-27T12:07:56;15.13;;;7.75;;
64609;SDS011;51019;46.090;6.350;2024-01-27T12:10:24;14.25;;;7.57;;
64609;SDS011;51019;46.090;6.350;2024-01-27T12:12:51;14.88;;;7.38;;
64609;SDS011;51019;46.090;6.350;2024-01-27T12:15:18;14.70;;;7.63;;
64609;SDS011;51019;46.090;6.350;2024-01-27T12:17:49;17.58;;;8.45;;
64609;SDS011;51019;46.090;6.350;2024-01-27T12:20:17;16.37;;;7.83;;
64609;SDS011;51019;46.090;6.350;2024-01-27T12:22:44;14.05;;;6.03;;
64609;SDS011;51019;46.090;6.350;2024-01-27T12:25:14;15.93;;;7.30;;
64609;SDS011;51019;46.090;6.350;2024-01-27T12:27:41;16.10;;;7.78;;
64609;SDS011;51019;46.090;6.350;2024-01-27T12:30:09;15.93;;;7.95;;
64609;SDS011;51019;46.090;6.350;2024-01-27T12:32:37;16.38;;;7.75;;
64609;SDS011;51019;46.090;6.350;2024-01-27T12:35:04;13.48;;;5.30;;
64609;SDS011;51019;46.090;6.350;2024-01-27T12:37:32;15.65;;;7.30;;
64609;SDS011;51019;46.090;6.350;2024-01-27T12:39:59;13.07;;;6.68;;
64609;SDS011;51019;46.090;6.350;2024-01-27T12:42:27;13.55;;;6.60;;
64609;SDS011;51019;46.090;6.350;2024-01-27T12:44:55;14.15;;;6.47;;
64609;SDS011;51019;46.090;6.350;2024-01-27T12:47:22;13.45;;;5.65;;
64609;SDS011;51019;46.090;6.350;2024-01-27T12:49:49;13.07;;;5.05;;
64609;SDS011;51019;46.090;6.350;2024-01-27T12:52:16;12.07;;;5.15;;
64609;SDS011;51019;46.090;6.350;2024-01-27T12:54:43;12.57;;;4.90;;
64609;SDS011;51019;46.090;6.350;2024-01-27T12:57:11;13.45;;;6.15;;
64609;SDS011;51019;46.090;6.350;2024-01-27T12:59:40;13.75;;;6.30;;
64609;SDS011;51019;46.090;6.350;2024-01-27T13:02:07;13.10;;;5.60;;
64609;SDS011;51019;46.090;6.350;2024-01-27T13:04:34;15.00;;;6.45;;
64609;SDS011;51019;46.090;6.350;2024-01-27T13:07:01;11.98;;;3.95;;
64609;SDS011;51019;46.090;6.350;2024-01-27T13:09:30;11.52;;;4.90;;
64609;SDS011;51019;46.090;6.350;2024-01-27T13:11:57;13.82;;;5.70;;
64609;SDS011;51019;46.090;6.350;2024-01-27T13:14:24;12.85;;;5.90;;
64609;SDS011;51019;46.090;6.350;2024-01-27T13:16:52;13.43;;;5.68;;
64609;SDS011;51019;46.090;6.350;2024-01-27T13:19:19;14.10;;;5.30;;
64609;SDS011;51019;46.090;6.350;2024-01-27T13:21:47;10.85;;;3.88;;
64609;SDS011;51019;46.090;6.350;2024-01-27T13:24:17;12.25;;;4.80;;
64609;SDS011;51019;46.090;6.350;2024-01-27T13:27:01;11.75;;;3.20;;
64609;SDS011;51019;46.090;6.350;2024-01-27T13:29:29;11.52;;;4.50;;
64609;SDS011;51019;46.090;6.350;2024-01-27T13:31:59;8.25;;;2.35;;
64609;SDS011;51019;46.090;6.350;2024-01-27T13:34:26;11.23;;;3.95;;
64609;SDS011;51019;46.090;6.350;2024-01-27T13:36:55;11.02;;;4.25;;
64609;SDS011;51019;46.090;6.350;2024-01-27T13:39:28;11.35;;;4.22;;
64609;SDS011;51019;46.090;6.350;2024-01-27T13:41:55;10.90;;;3.90;;
64609;SDS011;51019;46.090;6.350;2024-01-27T13:44:31;11.38;;;3.63;;
64609;SDS011;51019;46.090;6.350;2024-01-27T13:49:55;11.98;;;4.10;;
64609;SDS011;51019;46.090;6.350;2024-01-27T13:52:22;11.40;;;4.40;;
64609;SDS011;51019;46.090;6.350;2024-01-27T13:54:49;11.70;;;4.18;;
64609;SDS011;51019;46.090;6.350;2024-01-27T13:57:17;12.70;;;4.22;;
64609;SDS011;51019;46.090;6.350;2024-01-27T13:59:44;13.02;;;4.07;;
64609;SDS011;51019;46.090;6.350;2024-01-27T14:02:11;12.00;;;4.60;;
64609;SDS011;51019;46.090;6.350;2024-01-27T14:04:40;11.98;;;4.65;;
64609;SDS011;51019;46.090;6.350;2024-01-27T14:07:07;10.50;;;4.40;;
64609;SDS011;51019;46.090;6.350;2024-01-27T14:09:34;11.55;;;4.32;;
64609;SDS011;51019;46.090;6.350;2024-01-27T14:12:02;13.10;;;4.22;;
64609;SDS011;51019;46.090;6.350;2024-01-27T14:14:29;11.50;;;4.30;;
64609;SDS011;51019;46.090;6.350;2024-01-27T14:16:56;11.27;;;4.28;;
64609;SDS011;51019;46.090;6.350;2024-01-27T14:19:24;15.90;;;4.38;;
64609;SDS011;51019;46.090;6.350;2024-01-27T14:21:53;13.23;;;4.05;;
64609;SDS011;51019;46.090;6.350;2024-01-27T14:24:22;28.42;;;14.55;;
64609;SDS011;51019;46.090;6.350;2024-01-27T14:26:49;14.80;;;4.78;;
64609;SDS011;51019;46.090;6.350;2024-01-27T14:29:16;12.25;;;4.35;;
64609;SDS011;51019;46.090;6.350;2024-01-27T14:31:43;11.85;;;4.50;;
64609;SDS011;51019;46.090;6.350;2024-01-27T14:34:11;15.48;;;6.97;;